sensor_id;sensor_type;location;lat;lon;timestamp;pressure;altitude;pressure_sealevel;temperature
6550;BMP280;15142;48.888;9.134;2023-04-06T00:00:27;98314.38;;;1.33
6550;BMP280;15142;48.888;9.134;2023-04-06T00:02:55;98301.03;;;1.32
6550;BMP280;15142;48.888;9.134;2023-04-06T00:05:24;98300.47;;;1.30
6550;BMP280;15142;48.888;9.134;2023-04-06T00:07:53;98305.50;;;1.30
6550;BMP280;15142;48.888;9.134;2023-04-06T00:10:22;98301.31;;;1.18
6550;BMP280;15142;48.888;9.134;2023-04-06T00:12:51;98299.38;;;1.13
6550;BMP280;15142;48.888;9.134;2023-04-06T00:15:20;98298.88;;;0.99
6550;BMP280;15142;48.888;9.134;2023-04-06T00:17:51;98293.25;;;1.03
6550;BMP280;15142;48.888;9.134;2023-04-06T00:20:20;98294.00;;;1.04
6550;BMP280;15142;48.888;9.134;2023-04-06T00:22:49;98289.75;;;1.10
6550;BMP280;15142;48.888;9.134;2023-04-06T00:25:17;98289.75;;;1.10
6550;BMP280;15142;48.888;9.134;2023-04-06T00:27:46;98299.38;;;1.13
6550;BMP280;15142;48.888;9.134;2023-04-06T00:30:15;98293.22;;;1.09
6550;BMP280;15142;48.888;9.134;2023-04-06T00:32:44;98298.28;;;1.03
6550;BMP280;15142;48.888;9.134;2023-04-06T00:35:15;98286.69;;;0.96
6550;BMP280;15142;48.888;9.134;2023-04-06T00:37:46;98283.66;;;0.81
6550;BMP280;15142;48.888;9.134;2023-04-06T00:40:15;98286.78;;;0.76
6550;BMP280;15142;48.888;9.134;2023-04-06T00:42:45;98278.66;;;0.81
6550;BMP280;15142;48.888;9.134;2023-04-06T00:45:13;98283.47;;;0.82
6550;BMP280;15142;48.888;9.134;2023-04-06T00:47:43;98279.78;;;0.85
6550;BMP280;15142;48.888;9.134;2023-04-06T00:50:12;98276.13;;;0.81
6550;BMP280;15142;48.888;9.134;2023-04-06T00:52:43;98270.94;;;0.76
6550;BMP280;15142;48.888;9.134;2023-04-06T00:55:12;98278.66;;;0.74
6550;BMP280;15142;48.888;9.134;2023-04-06T00:57:42;98273.25;;;0.71
6550;BMP280;15142;48.888;9.134;2023-04-06T01:00:13;98281.38;;;0.73
6550;BMP280;15142;48.888;9.134;2023-04-06T01:02:44;98276.75;;;0.70
6550;BMP280;15142;48.888;9.134;2023-04-06T01:05:17;98279.28;;;0.70
6550;BMP280;15142;48.888;9.134;2023-04-06T01:07:59;98281.38;;;0.73
6550;BMP280;15142;48.888;9.134;2023-04-06T01:10:28;98287.56;;;0.70
6550;BMP280;15142;48.888;9.134;2023-04-06T01:13:23;98273.09;;;0.66
6550;BMP280;15142;48.888;9.134;2023-04-06T01:15:55;98265.00;;;0.64
6550;BMP280;15142;48.888;9.134;2023-04-06T01:18:50;98273.28;;;0.65
6550;BMP280;15142;48.888;9.134;2023-04-06T01:21:23;98270.78;;;0.65
6550;BMP280;15142;48.888;9.134;2023-04-06T01:24:24;98266.94;;;0.62
6550;BMP280;15142;48.888;9.134;2023-04-06T01:27:09;98274.84;;;0.53
6550;BMP280;15142;48.888;9.134;2023-04-06T01:29:51;98261.75;;;0.44
6550;BMP280;15142;48.888;9.134;2023-04-06T01:32:55;98263.84;;;0.54
6550;BMP280;15142;48.888;9.134;2023-04-06T01:35:52;98264.44;;;0.49
6550;BMP280;15142;48.888;9.134;2023-04-06T01:38:22;98262.50;;;0.51
6550;BMP280;15142;48.888;9.134;2023-04-06T01:40:54;98260.97;;;0.50
6550;BMP280;15142;48.888;9.134;2023-04-06T01:43:26;98261.53;;;0.52
6550;BMP280;15142;48.888;9.134;2023-04-06T01:46:06;98255.59;;;0.40
6550;BMP280;15142;48.888;9.134;2023-04-06T01:48:39;98254.47;;;0.30
6550;BMP280;15142;48.888;9.134;2023-04-06T01:51:20;98258.31;;;0.33
6550;BMP280;15142;48.888;9.134;2023-04-06T01:53:57;98257.13;;;0.35
6550;BMP280;15142;48.888;9.134;2023-04-06T01:56:39;98256.19;;;0.36
6550;BMP280;15142;48.888;9.134;2023-04-06T01:59:22;98247.09;;;0.35
6550;BMP280;15142;48.888;9.134;2023-04-06T02:01:51;98243.81;;;0.34
6550;BMP280;15142;48.888;9.134;2023-04-06T02:04:21;98250.19;;;0.37
6550;BMP280;15142;48.888;9.134;2023-04-06T02:06:54;98258.88;;;0.34
6550;BMP280;15142;48.888;9.134;2023-04-06T02:09:26;98253.09;;;0.28
6550;BMP280;15142;48.888;9.134;2023-04-06T02:11:58;98249.47;;;0.30
6550;BMP280;15142;48.888;9.134;2023-04-06T02:14:27;98251.72;;;0.32
6550;BMP280;15142;48.888;9.134;2023-04-06T02:16:58;98259.13;;;0.27
6550;BMP280;15142;48.888;9.134;2023-04-06T02:19:28;98256.19;;;0.30
6550;BMP280;15142;48.888;9.134;2023-04-06T02:21:57;98246.94;;;0.30
6550;BMP280;15142;48.888;9.134;2023-04-06T02:24:25;98245.56;;;0.34
6550;BMP280;15142;48.888;9.134;2023-04-06T02:26:57;98252.16;;;0.29
6550;BMP280;15142;48.888;9.134;2023-04-06T02:29:26;98258.69;;;0.30
6550;BMP280;15142;48.888;9.134;2023-04-06T02:31:55;98246.75;;;0.25
6550;BMP280;15142;48.888;9.134;2023-04-06T02:34:24;98242.53;;;0.13
6550;BMP280;15142;48.888;9.134;2023-04-06T02:36:53;98238.66;;;0.04
6550;BMP280;15142;48.888;9.134;2023-04-06T02:39:22;98240.22;;;-0.01
6550;BMP280;15142;48.888;9.134;2023-04-06T02:41:51;98241.00;;;-0.01
6550;BMP280;15142;48.888;9.134;2023-04-06T02:44:26;98241.16;;;0.04
6550;BMP280;15142;48.888;9.134;2023-04-06T02:46:55;98242.13;;;0.16
6550;BMP280;15142;48.888;9.134;2023-04-06T02:49:25;98240.97;;;0.25
6550;BMP280;15142;48.888;9.134;2023-04-06T02:51:56;98235.38;;;0.29
6550;BMP280;15142;48.888;9.134;2023-04-06T02:54:32;98236.34;;;0.28
6550;BMP280;15142;48.888;9.134;2023-04-06T02:57:02;98243.06;;;0.28
6550;BMP280;15142;48.888;9.134;2023-04-06T02:59:46;98245.22;;;0.31
6550;BMP280;15142;48.888;9.134;2023-04-06T03:02:20;98244.44;;;0.24
6550;BMP280;15142;48.888;9.134;2023-04-06T03:04:49;98238.66;;;0.23
6550;BMP280;15142;48.888;9.134;2023-04-06T03:07:24;98239.81;;;0.27
6550;BMP280;15142;48.888;9.134;2023-04-06T03:09:53;98237.50;;;0.19
6550;BMP280;15142;48.888;9.134;2023-04-06T03:12:22;98228.06;;;0.15
6550;BMP280;15142;48.888;9.134;2023-04-06T03:15:25;98227.69;;;0.05
6550;BMP280;15142;48.888;9.134;2023-04-06T03:18:04;98226.16;;;-0.09
6550;BMP280;15142;48.888;9.134;2023-04-06T03:20:40;98227.13;;;-0.10
6550;BMP280;15142;48.888;9.134;2023-04-06T03:23:09;98227.13;;;-0.10
6550;BMP280;15142;48.888;9.134;2023-04-06T03:25:41;98228.84;;;-0.10
6550;BMP280;15142;48.888;9.134;2023-04-06T03:28:14;98217.09;;;-0.23
6550;BMP280;15142;48.888;9.134;2023-04-06T03:30:59;98229.25;;;-0.13
6550;BMP280;15142;48.888;9.134;2023-04-06T03:33:49;98232.34;;;-0.18
6550;BMP280;15142;48.888;9.134;2023-04-06T03:36:29;98237.53;;;-0.13
6550;BMP280;15142;48.888;9.134;2023-04-06T03:38:58;98234.44;;;-0.02
6550;BMP280;15142;48.888;9.134;2023-04-06T03:41:29;98238.28;;;0.07
6550;BMP280;15142;48.888;9.134;2023-04-06T03:44:12;98244.47;;;0.11
6550;BMP280;15142;48.888;9.134;2023-04-06T03:46:46;98245.44;;;0.16
6550;BMP280;15142;48.888;9.134;2023-04-06T03:49:15;98240.59;;;0.15
6550;BMP280;15142;48.888;9.134;2023-04-06T03:51:47;98245.63;;;0.15
6550;BMP280;15142;48.888;9.134;2023-04-06T03:54:16;98245.22;;;0.05
6550;BMP280;15142;48.888;9.134;2023-04-06T03:56:45;98246.00;;;-0.01
6550;BMP280;15142;48.888;9.134;2023-04-06T03:59:14;98250.63;;;0.02
6550;BMP280;15142;48.888;9.134;2023-04-06T04:01:46;98251.41;;;0.09
6550;BMP280;15142;48.888;9.134;2023-04-06T04:04:15;98252.94;;;0.10
6550;BMP280;15142;48.888;9.134;2023-04-06T04:06:43;98259.69;;;0.03
6550;BMP280;15142;48.888;9.134;2023-04-06T04:09:13;98256.03;;;-0.01
6550;BMP280;15142;48.888;9.134;2023-04-06T04:11:41;98257.97;;;-0.03
6550;BMP280;15142;48.888;9.134;2023-04-06T04:14:10;98251.63;;;-0.05
6550;BMP280;15142;48.888;9.134;2023-04-06T04:16:38;98247.19;;;-0.10
6550;BMP280;15142;48.888;9.134;2023-04-06T04:19:10;98261.84;;;-0.13
6550;BMP280;15142;48.888;9.134;2023-04-06T04:21:43;98255.09;;;-0.19
6550;BMP280;15142;48.888;9.134;2023-04-06T04:24:17;98255.06;;;-0.13
6550;BMP280;15142;48.888;9.134;2023-04-06T04:26:45;98257.97;;;-0.16
6550;BMP280;15142;48.888;9.134;2023-04-06T04:29:15;98263.38;;;-0.19
6550;BMP280;15142;48.888;9.134;2023-04-06T04:31:47;98263.38;;;-0.19
6550;BMP280;15142;48.888;9.134;2023-04-06T04:34:19;98265.88;;;-0.19
6550;BMP280;15142;48.888;9.134;2023-04-06T04:36:50;98258.75;;;-0.22
6550;BMP280;15142;48.888;9.134;2023-04-06T04:39:28;98261.25;;;-0.22
6550;BMP280;15142;48.888;9.134;2023-04-06T04:42:02;98266.06;;;-0.20
6550;BMP280;15142;48.888;9.134;2023-04-06T04:44:33;98268.38;;;-0.19
6550;BMP280;15142;48.888;9.134;2023-04-06T04:47:03;98263.53;;;-0.20
6550;BMP280;15142;48.888;9.134;2023-04-06T04:49:43;98266.81;;;-0.26
6550;BMP280;15142;48.888;9.134;2023-04-06T04:52:17;98266.06;;;-0.27
6550;BMP280;15142;48.888;9.134;2023-04-06T04:54:54;98266.63;;;-0.25
6550;BMP280;15142;48.888;9.134;2023-04-06T04:57:27;98265.09;;;-0.19
6550;BMP280;15142;48.888;9.134;2023-04-06T04:59:56;98263.38;;;-0.19
6550;BMP280;15142;48.888;9.134;2023-04-06T05:02:25;98263.38;;;-0.19
6550;BMP280;15142;48.888;9.134;2023-04-06T05:05:12;98257.94;;;-0.29
6550;BMP280;15142;48.888;9.134;2023-04-06T05:07:41;98261.03;;;-0.27
6550;BMP280;15142;48.888;9.134;2023-04-06T05:10:18;98271.06;;;-0.27
6550;BMP280;15142;48.888;9.134;2023-04-06T05:12:53;98270.13;;;-0.26
6550;BMP280;15142;48.888;9.134;2023-04-06T05:15:22;98280.72;;;-0.17
6550;BMP280;15142;48.888;9.134;2023-04-06T05:17:55;98280.72;;;-0.11
6550;BMP280;15142;48.888;9.134;2023-04-06T05:20:33;98286.31;;;-0.09
6550;BMP280;15142;48.888;9.134;2023-04-06T05:23:02;98279.38;;;-0.07
6550;BMP280;15142;48.888;9.134;2023-04-06T05:25:32;98285.38;;;-0.01
6550;BMP280;15142;48.888;9.134;2023-04-06T05:28:11;98294.03;;;0.02
6550;BMP280;15142;48.888;9.134;2023-04-06T05:30:42;98295.22;;;0.06
6550;BMP280;15142;48.888;9.134;2023-04-06T05:33:12;98292.28;;;0.16
6550;BMP280;15142;48.888;9.134;2023-04-06T05:36:16;98297.50;;;0.27
6550;BMP280;15142;48.888;9.134;2023-04-06T05:38:47;98301.53;;;0.34
6550;BMP280;15142;48.888;9.134;2023-04-06T05:41:30;98296.88;;;0.44
6550;BMP280;15142;48.888;9.134;2023-04-06T05:44:00;98304.41;;;0.51
6550;BMP280;15142;48.888;9.134;2023-04-06T05:46:29;98299.00;;;0.60
6550;BMP280;15142;48.888;9.134;2023-04-06T05:48:59;98291.44;;;0.67
6550;BMP280;15142;48.888;9.134;2023-04-06T05:51:34;98300.09;;;0.77
6550;BMP280;15142;48.888;9.134;2023-04-06T05:54:03;98301.97;;;0.88
6550;BMP280;15142;48.888;9.134;2023-04-06T05:56:32;98307.56;;;1.03
6550;BMP280;15142;48.888;9.134;2023-04-06T05:59:02;98302.69;;;1.14
6550;BMP280;15142;48.888;9.134;2023-04-06T06:01:32;98305.19;;;1.20
6550;BMP280;15142;48.888;9.134;2023-04-06T06:04:02;98305.13;;;1.27
6550;BMP280;15142;48.888;9.134;2023-04-06T06:06:37;98305.25;;;1.32
6550;BMP280;15142;48.888;9.134;2023-04-06T06:09:17;98305.03;;;1.46
6550;BMP280;15142;48.888;9.134;2023-04-06T06:11:57;98312.09;;;1.55
6550;BMP280;15142;48.888;9.134;2023-04-06T06:14:28;98310.31;;;1.69
6550;BMP280;15142;48.888;9.134;2023-04-06T06:16:57;98305.41;;;1.80
6550;BMP280;15142;48.888;9.134;2023-04-06T06:19:27;98319.00;;;1.97
6550;BMP280;15142;48.888;9.134;2023-04-06T06:22:02;98320.06;;;2.07
6550;BMP280;15142;48.888;9.134;2023-04-06T06:24:34;98311.63;;;2.19
6550;BMP280;15142;48.888;9.134;2023-04-06T06:27:04;98315.56;;;2.33
6550;BMP280;15142;48.888;9.134;2023-04-06T06:29:34;98310.53;;;2.33
6550;BMP280;15142;48.888;9.134;2023-04-06T06:32:02;98318.94;;;2.45
6550;BMP280;15142;48.888;9.134;2023-04-06T06:34:31;98322.53;;;2.55
6550;BMP280;15142;48.888;9.134;2023-04-06T06:37:05;98328.41;;;2.67
6550;BMP280;15142;48.888;9.134;2023-04-06T06:39:37;98318.84;;;2.76
6550;BMP280;15142;48.888;9.134;2023-04-06T06:42:05;98327.84;;;2.83
6550;BMP280;15142;48.888;9.134;2023-04-06T06:44:54;98326.69;;;2.85
6550;BMP280;15142;48.888;9.134;2023-04-06T06:47:23;98328.19;;;2.86
6550;BMP280;15142;48.888;9.134;2023-04-06T06:49:53;98320.00;;;2.91
6550;BMP280;15142;48.888;9.134;2023-04-06T06:52:24;98325.19;;;3.13
6550;BMP280;15142;48.888;9.134;2023-04-06T06:54:54;98331.59;;;3.27
6550;BMP280;15142;48.888;9.134;2023-04-06T06:57:23;98337.88;;;3.36
6550;BMP280;15142;48.888;9.134;2023-04-06T06:59:52;98337.00;;;3.42
6550;BMP280;15142;48.888;9.134;2023-04-06T07:02:22;98337.81;;;3.54
6550;BMP280;15142;48.888;9.134;2023-04-06T07:04:50;98336.19;;;3.71
6550;BMP280;15142;48.888;9.134;2023-04-06T07:07:19;98335.00;;;3.84
6550;BMP280;15142;48.888;9.134;2023-04-06T07:09:50;98341.06;;;3.95
6550;BMP280;15142;48.888;9.134;2023-04-06T07:12:19;98333.94;;;4.14
6550;BMP280;15142;48.888;9.134;2023-04-06T07:14:48;98320.56;;;4.14
6550;BMP280;15142;48.888;9.134;2023-04-06T07:17:17;98343.41;;;4.19
6550;BMP280;15142;48.888;9.134;2023-04-06T07:19:46;98342.28;;;4.26
6550;BMP280;15142;48.888;9.134;2023-04-06T07:22:15;98339.03;;;4.65
6550;BMP280;15142;48.888;9.134;2023-04-06T07:24:44;98340.88;;;4.92
6550;BMP280;15142;48.888;9.134;2023-04-06T07:27:16;98332.63;;;5.12
6550;BMP280;15142;48.888;9.134;2023-04-06T07:29:45;98342.56;;;5.30
6550;BMP280;15142;48.888;9.134;2023-04-06T07:32:14;98335.22;;;5.29
6550;BMP280;15142;48.888;9.134;2023-04-06T07:34:43;98332.56;;;5.35
6550;BMP280;15142;48.888;9.134;2023-04-06T07:37:12;98346.22;;;5.50
6550;BMP280;15142;48.888;9.134;2023-04-06T07:39:42;98348.16;;;5.76
6550;BMP280;15142;48.888;9.134;2023-04-06T07:42:12;98332.41;;;5.90
6550;BMP280;15142;48.888;9.134;2023-04-06T07:44:45;98341.50;;;5.70
6550;BMP280;15142;48.888;9.134;2023-04-06T07:47:14;98342.28;;;5.71
6550;BMP280;15142;48.888;9.134;2023-04-06T07:49:43;98343.78;;;5.88
6550;BMP280;15142;48.888;9.134;2023-04-06T07:52:13;98342.53;;;5.90
6550;BMP280;15142;48.888;9.134;2023-04-06T07:54:42;98335.03;;;6.11
6550;BMP280;15142;48.888;9.134;2023-04-06T07:57:11;98325.47;;;6.35
6550;BMP280;15142;48.888;9.134;2023-04-06T07:59:40;98336.38;;;6.35
6550;BMP280;15142;48.888;9.134;2023-04-06T08:02:12;98334.88;;;6.39
6550;BMP280;15142;48.888;9.134;2023-04-06T08:04:41;98326.41;;;6.71
6550;BMP280;15142;48.888;9.134;2023-04-06T08:07:09;98330.81;;;6.80
6550;BMP280;15142;48.888;9.134;2023-04-06T08:09:38;98334.00;;;6.92
6550;BMP280;15142;48.888;9.134;2023-04-06T08:12:07;98336.72;;;7.12
6550;BMP280;15142;48.888;9.134;2023-04-06T08:14:36;98328.72;;;7.25
6550;BMP280;15142;48.888;9.134;2023-04-06T08:17:05;98329.06;;;7.33
6550;BMP280;15142;48.888;9.134;2023-04-06T08:19:36;98329.22;;;7.58
6550;BMP280;15142;48.888;9.134;2023-04-06T08:22:05;98330.28;;;7.98
6550;BMP280;15142;48.888;9.134;2023-04-06T08:24:34;98325.75;;;8.09
6550;BMP280;15142;48.888;9.134;2023-04-06T08:27:03;98331.16;;;8.18
6550;BMP280;15142;48.888;9.134;2023-04-06T08:29:31;98335.78;;;8.26
6550;BMP280;15142;48.888;9.134;2023-04-06T08:32:00;98325.63;;;8.31
6550;BMP280;15142;48.888;9.134;2023-04-06T08:34:31;98319.91;;;8.60
6550;BMP280;15142;48.888;9.134;2023-04-06T08:37:03;98328.13;;;9.01
6550;BMP280;15142;48.888;9.134;2023-04-06T08:39:32;98318.19;;;9.14
6550;BMP280;15142;48.888;9.134;2023-04-06T08:42:01;98326.34;;;9.06
6550;BMP280;15142;48.888;9.134;2023-04-06T08:44:32;98307.00;;;9.05
6550;BMP280;15142;48.888;9.134;2023-04-06T08:47:04;98311.84;;;9.17
6550;BMP280;15142;48.888;9.134;2023-04-06T08:49:34;98300.88;;;9.60
6550;BMP280;15142;48.888;9.134;2023-04-06T08:52:10;98307.94;;;10.03
6550;BMP280;15142;48.888;9.134;2023-04-06T08:54:39;98300.03;;;9.85
6550;BMP280;15142;48.888;9.134;2023-04-06T08:57:08;98307.59;;;10.14
6550;BMP280;15142;48.888;9.134;2023-04-06T08:59:38;98306.72;;;10.38
6550;BMP280;15142;48.888;9.134;2023-04-06T09:02:11;98301.28;;;10.54
6550;BMP280;15142;48.888;9.134;2023-04-06T09:04:43;98301.75;;;10.61
6550;BMP280;15142;48.888;9.134;2023-04-06T09:07:15;98296.84;;;10.70
6550;BMP280;15142;48.888;9.134;2023-04-06T09:09:44;98290.38;;;10.87
6550;BMP280;15142;48.888;9.134;2023-04-06T09:12:24;98299.31;;;10.84
6550;BMP280;15142;48.888;9.134;2023-04-06T09:14:54;98288.38;;;11.12
6550;BMP280;15142;48.888;9.134;2023-04-06T09:17:24;98293.16;;;10.90
6550;BMP280;15142;48.888;9.134;2023-04-06T09:19:53;98286.53;;;10.89
6550;BMP280;15142;48.888;9.134;2023-04-06T09:22:25;98284.06;;;11.12
6550;BMP280;15142;48.888;9.134;2023-04-06T09:24:55;98292.28;;;11.00
6550;BMP280;15142;48.888;9.134;2023-04-06T09:27:31;98296.16;;;10.97
6550;BMP280;15142;48.888;9.134;2023-04-06T09:30:05;98289.63;;;10.86
6550;BMP280;15142;48.888;9.134;2023-04-06T09:32:44;98287.38;;;11.08
6550;BMP280;15142;48.888;9.134;2023-04-06T09:35:14;98290.41;;;11.15
6550;BMP280;15142;48.888;9.134;2023-04-06T09:37:46;98283.81;;;11.09
6550;BMP280;15142;48.888;9.134;2023-04-06T09:40:16;98285.69;;;11.50
6550;BMP280;15142;48.888;9.134;2023-04-06T09:42:47;98290.59;;;11.74
6550;BMP280;15142;48.888;9.134;2023-04-06T09:45:17;98277.56;;;11.71
6550;BMP280;15142;48.888;9.134;2023-04-06T09:47:46;98286.50;;;11.50
6550;BMP280;15142;48.888;9.134;2023-04-06T09:50:15;98272.25;;;11.44
6550;BMP280;15142;48.888;9.134;2023-04-06T09:52:49;98275.81;;;11.15
6550;BMP280;15142;48.888;9.134;2023-04-06T09:55:23;98267.56;;;11.51
6550;BMP280;15142;48.888;9.134;2023-04-06T09:57:58;98280.84;;;11.53
6550;BMP280;15142;48.888;9.134;2023-04-06T10:00:31;98270.47;;;11.40
6550;BMP280;15142;48.888;9.134;2023-04-06T10:03:14;98264.75;;;11.76
6550;BMP280;15142;48.888;9.134;2023-04-06T10:08:22;98269.22;;;12.43
6550;BMP280;15142;48.888;9.134;2023-04-06T10:10:53;98272.53;;;12.07
6550;BMP280;15142;48.888;9.134;2023-04-06T10:13:23;98268.94;;;11.67
6550;BMP280;15142;48.888;9.134;2023-04-06T10:15:54;98262.03;;;11.16
6550;BMP280;15142;48.888;9.134;2023-04-06T10:18:23;98272.03;;;11.36
6550;BMP280;15142;48.888;9.134;2023-04-06T10:20:56;98275.63;;;11.86
6550;BMP280;15142;48.888;9.134;2023-04-06T10:23:32;98273.53;;;12.48
6550;BMP280;15142;48.888;9.134;2023-04-06T10:26:03;98260.50;;;12.44
6550;BMP280;15142;48.888;9.134;2023-04-06T10:28:34;98261.84;;;12.42
6550;BMP280;15142;48.888;9.134;2023-04-06T10:31:05;98258.66;;;12.50
6550;BMP280;15142;48.888;9.134;2023-04-06T10:33:34;98249.84;;;12.19
6550;BMP280;15142;48.888;9.134;2023-04-06T10:36:13;98259.66;;;11.25
6550;BMP280;15142;48.888;9.134;2023-04-06T10:38:44;98259.25;;;11.64
6550;BMP280;15142;48.888;9.134;2023-04-06T10:41:17;98253.81;;;12.30
6550;BMP280;15142;48.888;9.134;2023-04-06T10:43:54;98258.47;;;12.78
6550;BMP280;15142;48.888;9.134;2023-04-06T10:46:28;98247.94;;;13.24
6550;BMP280;15142;48.888;9.134;2023-04-06T10:48:57;98248.00;;;13.06
6550;BMP280;15142;48.888;9.134;2023-04-06T10:51:27;98242.94;;;13.01
6550;BMP280;15142;48.888;9.134;2023-04-06T10:54:01;98243.72;;;13.14
6550;BMP280;15142;48.888;9.134;2023-04-06T10:56:32;98249.81;;;13.32
6550;BMP280;15142;48.888;9.134;2023-04-06T10:59:01;98247.72;;;13.20
6550;BMP280;15142;48.888;9.134;2023-04-06T11:01:30;98244.13;;;13.48
6550;BMP280;15142;48.888;9.134;2023-04-06T11:03:59;98250.50;;;13.77
6550;BMP280;15142;48.888;9.134;2023-04-06T11:06:29;98246.06;;;13.91
6550;BMP280;15142;48.888;9.134;2023-04-06T11:09:00;98247.50;;;14.53
6550;BMP280;15142;48.888;9.134;2023-04-06T11:11:29;98248.22;;;15.52
6550;BMP280;15142;48.888;9.134;2023-04-06T11:13:59;98239.88;;;15.46
6550;BMP280;15142;48.888;9.134;2023-04-06T11:16:30;98232.91;;;15.39
6550;BMP280;15142;48.888;9.134;2023-04-06T11:19:00;98229.84;;;15.92
6550;BMP280;15142;48.888;9.134;2023-04-06T11:21:34;98227.97;;;16.34
6550;BMP280;15142;48.888;9.134;2023-04-06T11:24:11;98230.69;;;16.46
6550;BMP280;15142;48.888;9.134;2023-04-06T11:26:42;98225.63;;;16.66
6550;BMP280;15142;48.888;9.134;2023-04-06T11:29:16;98221.75;;;16.35
6550;BMP280;15142;48.888;9.134;2023-04-06T11:31:46;98222.63;;;16.47
6550;BMP280;15142;48.888;9.134;2023-04-06T11:34:17;98217.78;;;16.91
6550;BMP280;15142;48.888;9.134;2023-04-06T11:36:48;98223.84;;;16.95
6550;BMP280;15142;48.888;9.134;2023-04-06T11:39:21;98206.16;;;17.13
6550;BMP280;15142;48.888;9.134;2023-04-06T11:41:53;98215.78;;;17.33
6550;BMP280;15142;48.888;9.134;2023-04-06T11:44:33;98205.44;;;16.06
6550;BMP280;15142;48.888;9.134;2023-04-06T11:47:03;98196.28;;;14.87
6550;BMP280;15142;48.888;9.134;2023-04-06T11:49:33;98198.13;;;16.25
6550;BMP280;15142;48.888;9.134;2023-04-06T11:52:02;98197.63;;;16.39
6550;BMP280;15142;48.888;9.134;2023-04-06T11:54:35;98189.34;;;16.26
6550;BMP280;15142;48.888;9.134;2023-04-06T11:57:05;98197.94;;;16.38
6550;BMP280;15142;48.888;9.134;2023-04-06T11:59:34;98190.56;;;16.03
6550;BMP280;15142;48.888;9.134;2023-04-06T12:02:03;98187.06;;;16.78
6550;BMP280;15142;48.888;9.134;2023-04-06T12:04:32;98191.84;;;17.65
6550;BMP280;15142;48.888;9.134;2023-04-06T12:07:01;98197.25;;;17.31
6550;BMP280;15142;48.888;9.134;2023-04-06T12:09:33;98196.06;;;17.89
6550;BMP280;15142;48.888;9.134;2023-04-06T12:12:03;98187.84;;;18.19
6550;BMP280;15142;48.888;9.134;2023-04-06T12:14:31;98185.97;;;18.08
6550;BMP280;15142;48.888;9.134;2023-04-06T12:17:00;98180.75;;;17.64
6550;BMP280;15142;48.888;9.134;2023-04-06T12:19:28;98179.34;;;17.26
6550;BMP280;15142;48.888;9.134;2023-04-06T12:21:58;98173.66;;;17.41
6550;BMP280;15142;48.888;9.134;2023-04-06T12:24:27;98171.59;;;17.66
6550;BMP280;15142;48.888;9.134;2023-04-06T12:26:58;98170.38;;;17.52
6550;BMP280;15142;48.888;9.134;2023-04-06T12:29:27;98171.19;;;17.24
6550;BMP280;15142;48.888;9.134;2023-04-06T12:31:56;98166.00;;;16.76
6550;BMP280;15142;48.888;9.134;2023-04-06T12:34:27;98175.44;;;16.63
6550;BMP280;15142;48.888;9.134;2023-04-06T12:36:55;98172.13;;;16.55
6550;BMP280;15142;48.888;9.134;2023-04-06T12:39:25;98167.53;;;17.45
6550;BMP280;15142;48.888;9.134;2023-04-06T12:41:58;98167.28;;;17.18
6550;BMP280;15142;48.888;9.134;2023-04-06T12:44:27;98161.63;;;16.68
6550;BMP280;15142;48.888;9.134;2023-04-06T12:46:56;98158.00;;;16.97
6550;BMP280;15142;48.888;9.134;2023-04-06T12:49:25;98160.69;;;17.01
6550;BMP280;15142;48.888;9.134;2023-04-06T12:51:54;98155.44;;;17.17
6550;BMP280;15142;48.888;9.134;2023-04-06T12:54:23;98159.56;;;16.90
6550;BMP280;15142;48.888;9.134;2023-04-06T12:56:52;98152.81;;;18.10
6550;BMP280;15142;48.888;9.134;2023-04-06T12:59:24;98148.63;;;17.73
6550;BMP280;15142;48.888;9.134;2023-04-06T13:01:53;98141.06;;;15.98
6550;BMP280;15142;48.888;9.134;2023-04-06T13:04:23;98137.78;;;15.72
6550;BMP280;15142;48.888;9.134;2023-04-06T13:06:51;98146.56;;;16.41
6550;BMP280;15142;48.888;9.134;2023-04-06T13:09:21;98141.44;;;16.25
6550;BMP280;15142;48.888;9.134;2023-04-06T13:11:49;98131.56;;;15.65
6550;BMP280;15142;48.888;9.134;2023-04-06T13:14:18;98137.13;;;15.83
6550;BMP280;15142;48.888;9.134;2023-04-06T13:16:49;98153.25;;;16.79
6550;BMP280;15142;48.888;9.134;2023-04-06T13:19:18;98130.91;;;15.68
6550;BMP280;15142;48.888;9.134;2023-04-06T13:21:47;98137.28;;;16.85
6550;BMP280;15142;48.888;9.134;2023-04-06T13:24:16;98133.78;;;18.02
6550;BMP280;15142;48.888;9.134;2023-04-06T13:26:45;98120.97;;;17.74
6550;BMP280;15142;48.888;9.134;2023-04-06T13:29:13;98133.72;;;18.34
6550;BMP280;15142;48.888;9.134;2023-04-06T13:31:42;98127.34;;;18.20
6550;BMP280;15142;48.888;9.134;2023-04-06T13:34:14;98136.22;;;17.99
6550;BMP280;15142;48.888;9.134;2023-04-06T13:36:42;98121.72;;;17.22
6550;BMP280;15142;48.888;9.134;2023-04-06T13:39:11;98131.97;;;16.82
6550;BMP280;15142;48.888;9.134;2023-04-06T13:41:40;98116.22;;;17.64
6550;BMP280;15142;48.888;9.134;2023-04-06T13:44:08;98111.25;;;16.42
6550;BMP280;15142;48.888;9.134;2023-04-06T13:46:37;98110.63;;;15.91
6550;BMP280;15142;48.888;9.134;2023-04-06T13:49:06;98096.09;;;15.03
6550;BMP280;15142;48.888;9.134;2023-04-06T13:51:37;98099.09;;;15.05
6550;BMP280;15142;48.888;9.134;2023-04-06T13:54:06;98091.41;;;14.97
6550;BMP280;15142;48.888;9.134;2023-04-06T13:56:35;98101.22;;;15.20
6550;BMP280;15142;48.888;9.134;2023-04-06T13:59:04;98092.75;;;14.56
6550;BMP280;15142;48.888;9.134;2023-04-06T14:01:32;98104.53;;;15.04
6550;BMP280;15142;48.888;9.134;2023-04-06T14:04:01;98095.53;;;15.48
6550;BMP280;15142;48.888;9.134;2023-04-06T14:06:29;98099.00;;;15.77
6550;BMP280;15142;48.888;9.134;2023-04-06T14:09:00;98102.16;;;15.57
6550;BMP280;15142;48.888;9.134;2023-04-06T14:11:29;98096.84;;;15.79
6550;BMP280;15142;48.888;9.134;2023-04-06T14:13:59;98095.63;;;15.85
6550;BMP280;15142;48.888;9.134;2023-04-06T14:16:27;98085.38;;;15.51
6550;BMP280;15142;48.888;9.134;2023-04-06T14:18:56;98088.88;;;15.72
6550;BMP280;15142;48.888;9.134;2023-04-06T14:21:25;98093.75;;;14.68
6550;BMP280;15142;48.888;9.134;2023-04-06T14:23:54;98090.03;;;14.99
6550;BMP280;15142;48.888;9.134;2023-04-06T14:26:25;98092.03;;;14.64
6550;BMP280;15142;48.888;9.134;2023-04-06T14:28:54;98085.91;;;14.82
6550;BMP280;15142;48.888;9.134;2023-04-06T14:31:22;98087.25;;;14.79
6550;BMP280;15142;48.888;9.134;2023-04-06T14:33:51;98084.72;;;14.49
6550;BMP280;15142;48.888;9.134;2023-04-06T14:36:20;98085.13;;;14.64
6550;BMP280;15142;48.888;9.134;2023-04-06T14:38:49;98081.09;;;14.50
6550;BMP280;15142;48.888;9.134;2023-04-06T14:41:18;98078.19;;;14.43
6550;BMP280;15142;48.888;9.134;2023-04-06T14:43:49;98079.34;;;13.99
6550;BMP280;15142;48.888;9.134;2023-04-06T14:46:18;98082.19;;;13.98
6550;BMP280;15142;48.888;9.134;2023-04-06T14:48:47;98075.63;;;13.83
6550;BMP280;15142;48.888;9.134;2023-04-06T14:51:16;98078.66;;;14.07
6550;BMP280;15142;48.888;9.134;2023-04-06T14:53:44;98069.81;;;13.91